Beernem, Belgium
Current Conditions -  °F | °C
As of 1:20 AM on Friday 28 Nov 2014 (Local Time) from EBOS Reporting Station
Broken Clouds Broken Clouds  
Wind Chill: 50°   Ceiling: 3200
Heat Index: 50°   Visibility: 4mi
Dew Point: 48°   Wind: 7mph
Humidity: 94%   Direction: 80°E
Pressure: 29.65"   Gusts: NA
Location:  51.14°N, 3.34°E
Report Text: EBOS 280020Z 08006KT 050V110 7000 FEW004 SCT006 BKN032 10/09 Q1004 TEMPO BKN006
Loading
Personal Weather Stations






























Interactive Weather Map New forecast layout! Learn more

10-Day Weather Forecast

Advertisements
Track Severe Weather on mobile